sensor_id;sensor_type;location;lat;lon;timestamp;P1;durP1;ratioP1;P2;durP2;ratioP2
2966;SDS011;1493;51.496;7.210;2023-09-18T00:00:24;10.10;;;5.47;;
2966;SDS011;1493;51.496;7.210;2023-09-18T00:02:50;6.63;;;5.60;;
2966;SDS011;1493;51.496;7.210;2023-09-18T00:05:17;6.80;;;5.27;;
2966;SDS011;1493;51.496;7.210;2023-09-18T00:07:44;10.47;;;5.63;;
2966;SDS011;1493;51.496;7.210;2023-09-18T00:10:11;6.73;;;5.67;;
2966;SDS011;1493;51.496;7.210;2023-09-18T00:12:39;7.23;;;4.70;;
2966;SDS011;1493;51.496;7.210;2023-09-18T00:15:08;5.53;;;4.50;;
2966;SDS011;1493;51.496;7.210;2023-09-18T00:17:35;8.67;;;5.00;;
2966;SDS011;1493;51.496;7.210;2023-09-18T00:20:02;7.90;;;5.10;;
2966;SDS011;1493;51.496;7.210;2023-09-18T00:22:31;7.90;;;5.63;;
2966;SDS011;1493;51.496;7.210;2023-09-18T00:24:58;7.50;;;6.07;;
2966;SDS011;1493;51.496;7.210;2023-09-18T00:27:26;9.03;;;5.77;;
2966;SDS011;1493;51.496;7.210;2023-09-18T00:29:53;6.33;;;4.90;;
2966;SDS011;1493;51.496;7.210;2023-09-18T00:32:21;8.50;;;4.90;;
2966;SDS011;1493;51.496;7.210;2023-09-18T00:34:48;10.00;;;6.00;;
2966;SDS011;1493;51.496;7.210;2023-09-18T00:37:15;6.90;;;5.50;;
2966;SDS011;1493;51.496;7.210;2023-09-18T00:39:42;5.90;;;5.00;;
2966;SDS011;1493;51.496;7.210;2023-09-18T00:42:09;5.70;;;5.00;;
2966;SDS011;1493;51.496;7.210;2023-09-18T00:44:38;5.93;;;5.33;;
2966;SDS011;1493;51.496;7.210;2023-09-18T00:47:06;6.13;;;5.53;;
2966;SDS011;1493;51.496;7.210;2023-09-18T00:49:34;8.63;;;5.50;;
2966;SDS011;1493;51.496;7.210;2023-09-18T00:52:03;8.37;;;5.40;;
2966;SDS011;1493;51.496;7.210;2023-09-18T00:54:31;7.07;;;5.10;;
2966;SDS011;1493;51.496;7.210;2023-09-18T00:57:00;7.80;;;5.83;;
2966;SDS011;1493;51.496;7.210;2023-09-18T00:59:27;6.40;;;5.00;;
2966;SDS011;1493;51.496;7.210;2023-09-18T01:01:54;7.20;;;6.30;;
2966;SDS011;1493;51.496;7.210;2023-09-18T01:04:21;8.20;;;5.47;;
2966;SDS011;1493;51.496;7.210;2023-09-18T01:06:51;10.60;;;5.13;;
2966;SDS011;1493;51.496;7.210;2023-09-18T01:09:19;5.77;;;5.20;;
2966;SDS011;1493;51.496;7.210;2023-09-18T01:11:49;8.00;;;5.50;;
2966;SDS011;1493;51.496;7.210;2023-09-18T01:14:25;8.87;;;5.87;;
2966;SDS011;1493;51.496;7.210;2023-09-18T01:17:00;9.07;;;5.40;;
2966;SDS011;1493;51.496;7.210;2023-09-18T01:19:39;7.63;;;5.83;;
2966;SDS011;1493;51.496;7.210;2023-09-18T01:22:09;7.10;;;5.03;;
2966;SDS011;1493;51.496;7.210;2023-09-18T01:24:38;5.60;;;5.10;;
2966;SDS011;1493;51.496;7.210;2023-09-18T01:27:07;6.83;;;5.40;;
2966;SDS011;1493;51.496;7.210;2023-09-18T01:29:35;7.37;;;6.60;;
2966;SDS011;1493;51.496;7.210;2023-09-18T01:32:02;10.50;;;5.10;;
2966;SDS011;1493;51.496;7.210;2023-09-18T01:34:30;10.50;;;5.87;;
2966;SDS011;1493;51.496;7.210;2023-09-18T01:37:01;14.13;;;6.10;;
2966;SDS011;1493;51.496;7.210;2023-09-18T01:39:29;7.20;;;5.43;;
2966;SDS011;1493;51.496;7.210;2023-09-18T01:42:01;8.10;;;5.70;;
2966;SDS011;1493;51.496;7.210;2023-09-18T01:44:30;6.83;;;4.90;;
2966;SDS011;1493;51.496;7.210;2023-09-18T01:46:57;6.33;;;5.47;;
2966;SDS011;1493;51.496;7.210;2023-09-18T01:49:28;8.30;;;5.43;;
2966;SDS011;1493;51.496;7.210;2023-09-18T01:51:56;9.13;;;5.27;;
2966;SDS011;1493;51.496;7.210;2023-09-18T01:54:23;6.33;;;5.67;;
2966;SDS011;1493;51.496;7.210;2023-09-18T01:56:50;5.40;;;4.90;;
2966;SDS011;1493;51.496;7.210;2023-09-18T01:59:19;6.33;;;5.10;;
2966;SDS011;1493;51.496;7.210;2023-09-18T02:01:47;5.10;;;4.60;;
2966;SDS011;1493;51.496;7.210;2023-09-18T02:04:14;5.90;;;5.13;;
2966;SDS011;1493;51.496;7.210;2023-09-18T02:06:41;6.40;;;5.43;;
2966;SDS011;1493;51.496;7.210;2023-09-18T02:09:07;7.40;;;5.67;;
2966;SDS011;1493;51.496;7.210;2023-09-18T02:11:35;7.60;;;5.90;;
2966;SDS011;1493;51.496;7.210;2023-09-18T02:14:03;6.60;;;5.87;;
2966;SDS011;1493;51.496;7.210;2023-09-18T02:16:32;7.47;;;5.50;;
2966;SDS011;1493;51.496;7.210;2023-09-18T02:19:01;9.10;;;6.13;;
2966;SDS011;1493;51.496;7.210;2023-09-18T02:21:28;7.20;;;5.23;;
2966;SDS011;1493;51.496;7.210;2023-09-18T02:23:55;7.63;;;6.10;;
2966;SDS011;1493;51.496;7.210;2023-09-18T02:26:22;7.60;;;6.40;;
2966;SDS011;1493;51.496;7.210;2023-09-18T02:28:51;9.43;;;5.53;;
2966;SDS011;1493;51.496;7.210;2023-09-18T02:31:18;10.60;;;5.40;;
2966;SDS011;1493;51.496;7.210;2023-09-18T02:33:46;7.53;;;5.40;;
2966;SDS011;1493;51.496;7.210;2023-09-18T02:36:13;6.33;;;5.37;;
2966;SDS011;1493;51.496;7.210;2023-09-18T02:38:40;7.00;;;5.57;;
2966;SDS011;1493;51.496;7.210;2023-09-18T02:41:07;8.87;;;6.27;;
2966;SDS011;1493;51.496;7.210;2023-09-18T02:43:34;6.43;;;5.33;;
2966;SDS011;1493;51.496;7.210;2023-09-18T02:46:02;8.10;;;5.60;;
2966;SDS011;1493;51.496;7.210;2023-09-18T02:48:30;6.70;;;4.53;;
2966;SDS011;1493;51.496;7.210;2023-09-18T02:50:59;5.33;;;4.83;;
2966;SDS011;1493;51.496;7.210;2023-09-18T02:53:25;6.57;;;5.03;;
2966;SDS011;1493;51.496;7.210;2023-09-18T02:55:53;6.03;;;4.90;;
2966;SDS011;1493;51.496;7.210;2023-09-18T02:58:21;6.10;;;5.33;;
2966;SDS011;1493;51.496;7.210;2023-09-18T03:00:51;6.00;;;5.40;;
2966;SDS011;1493;51.496;7.210;2023-09-18T03:03:19;5.17;;;4.67;;
2966;SDS011;1493;51.496;7.210;2023-09-18T03:05:46;7.00;;;5.90;;
2966;SDS011;1493;51.496;7.210;2023-09-18T03:08:14;5.43;;;4.93;;
2966;SDS011;1493;51.496;7.210;2023-09-18T03:10:42;10.87;;;6.20;;
2966;SDS011;1493;51.496;7.210;2023-09-18T03:13:10;6.73;;;4.77;;
2966;SDS011;1493;51.496;7.210;2023-09-18T03:15:37;6.70;;;6.00;;
2966;SDS011;1493;51.496;7.210;2023-09-18T03:18:05;7.07;;;5.67;;
2966;SDS011;1493;51.496;7.210;2023-09-18T03:20:33;6.33;;;5.00;;
2966;SDS011;1493;51.496;7.210;2023-09-18T03:23:00;6.53;;;5.50;;
2966;SDS011;1493;51.496;7.210;2023-09-18T03:25:29;5.03;;;4.50;;
2966;SDS011;1493;51.496;7.210;2023-09-18T03:27:56;8.17;;;4.80;;
2966;SDS011;1493;51.496;7.210;2023-09-18T03:30:24;6.10;;;4.67;;
2966;SDS011;1493;51.496;7.210;2023-09-18T03:32:51;6.03;;;4.37;;
2966;SDS011;1493;51.496;7.210;2023-09-18T03:35:18;9.90;;;4.53;;
2966;SDS011;1493;51.496;7.210;2023-09-18T03:37:46;6.00;;;3.70;;
2966;SDS011;1493;51.496;7.210;2023-09-18T03:40:13;7.37;;;4.37;;
2966;SDS011;1493;51.496;7.210;2023-09-18T03:42:42;5.70;;;4.20;;
2966;SDS011;1493;51.496;7.210;2023-09-18T03:45:09;6.80;;;4.40;;
2966;SDS011;1493;51.496;7.210;2023-09-18T03:47:36;4.67;;;3.87;;
2966;SDS011;1493;51.496;7.210;2023-09-18T03:50:05;5.93;;;3.73;;
2966;SDS011;1493;51.496;7.210;2023-09-18T03:52:33;6.90;;;3.80;;
2966;SDS011;1493;51.496;7.210;2023-09-18T03:55:00;6.77;;;4.40;;
2966;SDS011;1493;51.496;7.210;2023-09-18T03:57:27;10.00;;;3.93;;
2966;SDS011;1493;51.496;7.210;2023-09-18T03:59:56;7.53;;;3.90;;
2966;SDS011;1493;51.496;7.210;2023-09-18T04:04:50;5.10;;;3.90;;
2966;SDS011;1493;51.496;7.210;2023-09-18T04:07:18;6.83;;;4.53;;
2966;SDS011;1493;51.496;7.210;2023-09-18T04:09:44;6.30;;;4.03;;
2966;SDS011;1493;51.496;7.210;2023-09-18T04:12:11;4.97;;;4.00;;
2966;SDS011;1493;51.496;7.210;2023-09-18T04:14:38;6.03;;;3.93;;
2966;SDS011;1493;51.496;7.210;2023-09-18T04:17:06;6.17;;;3.90;;
2966;SDS011;1493;51.496;7.210;2023-09-18T04:19:33;4.60;;;4.20;;
2966;SDS011;1493;51.496;7.210;2023-09-18T04:22:00;8.50;;;4.40;;
2966;SDS011;1493;51.496;7.210;2023-09-18T04:24:27;5.00;;;3.93;;
2966;SDS011;1493;51.496;7.210;2023-09-18T04:26:54;4.37;;;3.63;;
2966;SDS011;1493;51.496;7.210;2023-09-18T04:29:21;6.30;;;3.50;;
2966;SDS011;1493;51.496;7.210;2023-09-18T04:31:47;4.17;;;3.77;;
2966;SDS011;1493;51.496;7.210;2023-09-18T04:34:17;4.63;;;3.60;;
2966;SDS011;1493;51.496;7.210;2023-09-18T04:36:44;6.17;;;3.90;;
2966;SDS011;1493;51.496;7.210;2023-09-18T04:39:11;9.03;;;4.90;;
2966;SDS011;1493;51.496;7.210;2023-09-18T04:41:39;6.60;;;4.20;;
2966;SDS011;1493;51.496;7.210;2023-09-18T04:44:06;7.07;;;3.80;;
2966;SDS011;1493;51.496;7.210;2023-09-18T04:46:33;4.93;;;3.50;;
2966;SDS011;1493;51.496;7.210;2023-09-18T04:49:00;6.23;;;4.03;;
2966;SDS011;1493;51.496;7.210;2023-09-18T04:51:30;6.63;;;4.07;;
2966;SDS011;1493;51.496;7.210;2023-09-18T04:53:57;9.17;;;4.43;;
2966;SDS011;1493;51.496;7.210;2023-09-18T04:56:24;7.10;;;3.80;;
2966;SDS011;1493;51.496;7.210;2023-09-18T04:58:52;8.60;;;3.70;;
2966;SDS011;1493;51.496;7.210;2023-09-18T05:01:19;8.13;;;3.77;;
2966;SDS011;1493;51.496;7.210;2023-09-18T05:03:45;6.73;;;3.87;;
2966;SDS011;1493;51.496;7.210;2023-09-18T05:06:15;8.97;;;5.00;;
2966;SDS011;1493;51.496;7.210;2023-09-18T05:08:44;4.23;;;3.67;;
2966;SDS011;1493;51.496;7.210;2023-09-18T05:11:11;10.30;;;3.90;;
2966;SDS011;1493;51.496;7.210;2023-09-18T05:13:38;9.23;;;4.43;;
2966;SDS011;1493;51.496;7.210;2023-09-18T05:16:05;11.00;;;4.33;;
2966;SDS011;1493;51.496;7.210;2023-09-18T05:18:33;5.70;;;4.00;;
2966;SDS011;1493;51.496;7.210;2023-09-18T05:21:01;6.23;;;4.30;;
2966;SDS011;1493;51.496;7.210;2023-09-18T05:23:29;10.97;;;4.70;;
2966;SDS011;1493;51.496;7.210;2023-09-18T05:25:58;5.20;;;3.97;;
2966;SDS011;1493;51.496;7.210;2023-09-18T05:28:25;9.73;;;4.87;;
2966;SDS011;1493;51.496;7.210;2023-09-18T05:30:52;7.03;;;3.87;;
2966;SDS011;1493;51.496;7.210;2023-09-18T05:33:20;9.13;;;4.50;;
2966;SDS011;1493;51.496;7.210;2023-09-18T05:35:47;7.70;;;4.53;;
2966;SDS011;1493;51.496;7.210;2023-09-18T05:38:15;6.60;;;3.50;;
2966;SDS011;1493;51.496;7.210;2023-09-18T05:40:43;9.40;;;3.97;;
2966;SDS011;1493;51.496;7.210;2023-09-18T05:43:12;6.43;;;4.00;;
2966;SDS011;1493;51.496;7.210;2023-09-18T05:45:40;7.60;;;4.67;;
2966;SDS011;1493;51.496;7.210;2023-09-18T05:48:07;6.03;;;3.80;;
2966;SDS011;1493;51.496;7.210;2023-09-18T05:50:40;6.30;;;3.97;;
2966;SDS011;1493;51.496;7.210;2023-09-18T05:53:07;6.73;;;3.53;;
2966;SDS011;1493;51.496;7.210;2023-09-18T05:55:36;8.67;;;4.50;;
2966;SDS011;1493;51.496;7.210;2023-09-18T05:58:03;12.53;;;4.10;;
2966;SDS011;1493;51.496;7.210;2023-09-18T06:00:33;6.10;;;3.87;;
2966;SDS011;1493;51.496;7.210;2023-09-18T06:03:02;7.30;;;3.43;;
2966;SDS011;1493;51.496;7.210;2023-09-18T06:05:30;9.80;;;4.60;;
2966;SDS011;1493;51.496;7.210;2023-09-18T06:07:59;6.37;;;3.67;;
2966;SDS011;1493;51.496;7.210;2023-09-18T06:10:26;11.87;;;4.97;;
2966;SDS011;1493;51.496;7.210;2023-09-18T06:12:53;5.60;;;4.07;;
2966;SDS011;1493;51.496;7.210;2023-09-18T06:15:23;5.63;;;3.40;;
2966;SDS011;1493;51.496;7.210;2023-09-18T06:17:51;11.67;;;3.83;;
2966;SDS011;1493;51.496;7.210;2023-09-18T06:20:20;6.57;;;3.40;;
2966;SDS011;1493;51.496;7.210;2023-09-18T06:22:52;6.87;;;3.40;;
2966;SDS011;1493;51.496;7.210;2023-09-18T06:25:25;6.07;;;3.13;;
2966;SDS011;1493;51.496;7.210;2023-09-18T06:28:00;7.70;;;4.10;;
2966;SDS011;1493;51.496;7.210;2023-09-18T06:30:30;7.07;;;3.50;;
2966;SDS011;1493;51.496;7.210;2023-09-18T06:33:03;8.17;;;3.20;;
2966;SDS011;1493;51.496;7.210;2023-09-18T06:35:33;7.07;;;3.93;;
2966;SDS011;1493;51.496;7.210;2023-09-18T06:38:00;5.33;;;3.27;;
2966;SDS011;1493;51.496;7.210;2023-09-18T06:40:27;6.67;;;3.13;;
2966;SDS011;1493;51.496;7.210;2023-09-18T06:42:57;5.70;;;2.70;;
2966;SDS011;1493;51.496;7.210;2023-09-18T06:45:25;6.20;;;3.30;;
2966;SDS011;1493;51.496;7.210;2023-09-18T06:47:52;5.00;;;2.87;;
2966;SDS011;1493;51.496;7.210;2023-09-18T06:50:21;7.53;;;3.90;;
2966;SDS011;1493;51.496;7.210;2023-09-18T06:52:48;7.00;;;3.20;;
2966;SDS011;1493;51.496;7.210;2023-09-18T06:55:15;6.90;;;2.60;;
2966;SDS011;1493;51.496;7.210;2023-09-18T06:57:45;8.90;;;2.77;;
2966;SDS011;1493;51.496;7.210;2023-09-18T07:00:13;7.47;;;2.70;;
2966;SDS011;1493;51.496;7.210;2023-09-18T07:02:43;4.60;;;2.33;;
2966;SDS011;1493;51.496;7.210;2023-09-18T07:05:10;8.97;;;3.53;;
2966;SDS011;1493;51.496;7.210;2023-09-18T07:07:38;6.43;;;2.53;;
2966;SDS011;1493;51.496;7.210;2023-09-18T07:10:06;5.13;;;3.13;;
2966;SDS011;1493;51.496;7.210;2023-09-18T07:12:33;6.10;;;2.90;;
2966;SDS011;1493;51.496;7.210;2023-09-18T07:15:01;7.23;;;2.57;;
2966;SDS011;1493;51.496;7.210;2023-09-18T07:17:29;5.90;;;2.80;;
2966;SDS011;1493;51.496;7.210;2023-09-18T07:19:56;9.03;;;3.30;;
2966;SDS011;1493;51.496;7.210;2023-09-18T07:22:24;5.60;;;2.83;;
2966;SDS011;1493;51.496;7.210;2023-09-18T07:24:53;4.93;;;2.23;;
2966;SDS011;1493;51.496;7.210;2023-09-18T07:27:20;4.53;;;2.27;;
2966;SDS011;1493;51.496;7.210;2023-09-18T07:29:51;9.40;;;2.50;;
2966;SDS011;1493;51.496;7.210;2023-09-18T07:32:21;3.90;;;2.07;;
2966;SDS011;1493;51.496;7.210;2023-09-18T07:34:49;3.20;;;1.97;;
2966;SDS011;1493;51.496;7.210;2023-09-18T07:37:16;4.90;;;2.33;;
2966;SDS011;1493;51.496;7.210;2023-09-18T07:39:46;8.53;;;2.50;;
2966;SDS011;1493;51.496;7.210;2023-09-18T07:42:14;5.03;;;2.10;;
2966;SDS011;1493;51.496;7.210;2023-09-18T07:44:41;4.60;;;2.20;;
2966;SDS011;1493;51.496;7.210;2023-09-18T07:47:08;5.80;;;2.67;;
2966;SDS011;1493;51.496;7.210;2023-09-18T07:49:35;7.60;;;1.93;;
2966;SDS011;1493;51.496;7.210;2023-09-18T07:52:01;5.60;;;2.13;;
2966;SDS011;1493;51.496;7.210;2023-09-18T07:54:29;4.00;;;2.10;;
2966;SDS011;1493;51.496;7.210;2023-09-18T07:56:55;5.53;;;2.60;;
2966;SDS011;1493;51.496;7.210;2023-09-18T07:59:29;6.77;;;2.50;;
2966;SDS011;1493;51.496;7.210;2023-09-18T08:01:56;5.07;;;2.17;;
2966;SDS011;1493;51.496;7.210;2023-09-18T08:04:23;4.70;;;2.60;;
2966;SDS011;1493;51.496;7.210;2023-09-18T08:06:50;3.27;;;1.80;;
2966;SDS011;1493;51.496;7.210;2023-09-18T08:09:17;3.90;;;2.23;;
2966;SDS011;1493;51.496;7.210;2023-09-18T08:11:44;4.90;;;2.00;;
2966;SDS011;1493;51.496;7.210;2023-09-18T08:14:10;3.03;;;2.27;;
2966;SDS011;1493;51.496;7.210;2023-09-18T08:16:39;5.70;;;2.30;;
2966;SDS011;1493;51.496;7.210;2023-09-18T08:19:05;10.67;;;2.60;;
2966;SDS011;1493;51.496;7.210;2023-09-18T08:21:32;4.23;;;1.93;;
2966;SDS011;1493;51.496;7.210;2023-09-18T08:23:59;4.17;;;2.07;;
2966;SDS011;1493;51.496;7.210;2023-09-18T08:26:26;8.30;;;2.20;;
2966;SDS011;1493;51.496;7.210;2023-09-18T08:28:53;4.63;;;2.17;;
2966;SDS011;1493;51.496;7.210;2023-09-18T08:31:20;4.90;;;2.13;;
2966;SDS011;1493;51.496;7.210;2023-09-18T08:33:49;6.17;;;2.00;;
2966;SDS011;1493;51.496;7.210;2023-09-18T08:36:16;3.97;;;1.87;;
2966;SDS011;1493;51.496;7.210;2023-09-18T08:38:43;4.53;;;1.90;;
2966;SDS011;1493;51.496;7.210;2023-09-18T08:41:11;2.87;;;1.90;;
2966;SDS011;1493;51.496;7.210;2023-09-18T08:43:39;2.63;;;1.50;;
2966;SDS011;1493;51.496;7.210;2023-09-18T08:46:09;2.87;;;1.67;;
2966;SDS011;1493;51.496;7.210;2023-09-18T08:48:36;4.93;;;1.97;;
2966;SDS011;1493;51.496;7.210;2023-09-18T08:51:06;4.73;;;2.00;;
2966;SDS011;1493;51.496;7.210;2023-09-18T08:53:34;6.23;;;1.87;;
2966;SDS011;1493;51.496;7.210;2023-09-18T08:56:02;3.87;;;1.77;;
2966;SDS011;1493;51.496;7.210;2023-09-18T08:58:31;3.30;;;1.73;;
2966;SDS011;1493;51.496;7.210;2023-09-18T09:01:00;3.90;;;2.27;;
2966;SDS011;1493;51.496;7.210;2023-09-18T09:03:28;3.17;;;1.70;;
2966;SDS011;1493;51.496;7.210;2023-09-18T09:05:56;3.30;;;1.70;;
2966;SDS011;1493;51.496;7.210;2023-09-18T09:08:27;4.50;;;1.57;;
2966;SDS011;1493;51.496;7.210;2023-09-18T09:10:54;4.17;;;1.60;;
2966;SDS011;1493;51.496;7.210;2023-09-18T09:13:23;4.20;;;1.83;;
2966;SDS011;1493;51.496;7.210;2023-09-18T09:15:52;5.50;;;2.00;;
2966;SDS011;1493;51.496;7.210;2023-09-18T09:18:21;3.90;;;1.97;;
2966;SDS011;1493;51.496;7.210;2023-09-18T09:20:55;3.80;;;1.70;;
2966;SDS011;1493;51.496;7.210;2023-09-18T09:23:24;3.40;;;1.63;;
2966;SDS011;1493;51.496;7.210;2023-09-18T09:25:52;4.10;;;1.93;;
2966;SDS011;1493;51.496;7.210;2023-09-18T09:28:28;4.53;;;1.60;;
2966;SDS011;1493;51.496;7.210;2023-09-18T09:30:59;3.83;;;1.70;;
2966;SDS011;1493;51.496;7.210;2023-09-18T09:33:27;2.87;;;1.33;;
2966;SDS011;1493;51.496;7.210;2023-09-18T09:35:55;5.27;;;1.83;;
2966;SDS011;1493;51.496;7.210;2023-09-18T09:38:27;4.80;;;1.80;;
2966;SDS011;1493;51.496;7.210;2023-09-18T09:40:58;2.83;;;1.60;;
2966;SDS011;1493;51.496;7.210;2023-09-18T09:43:25;4.80;;;1.80;;
2966;SDS011;1493;51.496;7.210;2023-09-18T09:45:56;4.83;;;2.30;;
2966;SDS011;1493;51.496;7.210;2023-09-18T09:48:24;4.80;;;1.70;;
2966;SDS011;1493;51.496;7.210;2023-09-18T09:50:51;5.40;;;2.00;;
2966;SDS011;1493;51.496;7.210;2023-09-18T09:56:11;4.87;;;2.20;;
2966;SDS011;1493;51.496;7.210;2023-09-18T09:58:38;3.60;;;1.50;;
2966;SDS011;1493;51.496;7.210;2023-09-18T10:01:09;5.93;;;2.40;;
2966;SDS011;1493;51.496;7.210;2023-09-18T10:03:44;3.23;;;1.30;;
2966;SDS011;1493;51.496;7.210;2023-09-18T10:06:11;5.80;;;1.87;;
2966;SDS011;1493;51.496;7.210;2023-09-18T10:08:40;6.30;;;2.10;;
2966;SDS011;1493;51.496;7.210;2023-09-18T10:11:08;3.30;;;1.50;;
2966;SDS011;1493;51.496;7.210;2023-09-18T10:13:44;3.60;;;1.40;;
2966;SDS011;1493;51.496;7.210;2023-09-18T10:16:15;5.33;;;1.57;;
2966;SDS011;1493;51.496;7.210;2023-09-18T10:18:44;3.07;;;1.30;;
2966;SDS011;1493;51.496;7.210;2023-09-18T10:21:26;3.00;;;1.73;;
2966;SDS011;1493;51.496;7.210;2023-09-18T10:23:59;3.47;;;1.50;;
2966;SDS011;1493;51.496;7.210;2023-09-18T10:26:33;2.53;;;1.47;;
2966;SDS011;1493;51.496;7.210;2023-09-18T10:29:10;2.73;;;1.67;;
2966;SDS011;1493;51.496;7.210;2023-09-18T10:31:39;3.40;;;1.47;;
2966;SDS011;1493;51.496;7.210;2023-09-18T10:34:07;5.23;;;1.77;;
2966;SDS011;1493;51.496;7.210;2023-09-18T10:36:34;4.83;;;2.20;;
2966;SDS011;1493;51.496;7.210;2023-09-18T10:39:03;3.13;;;1.80;;
2966;SDS011;1493;51.496;7.210;2023-09-18T10:41:33;2.70;;;1.50;;
2966;SDS011;1493;51.496;7.210;2023-09-18T10:44:01;4.20;;;1.80;;
2966;SDS011;1493;51.496;7.210;2023-09-18T10:46:31;3.30;;;1.50;;
2966;SDS011;1493;51.496;7.210;2023-09-18T10:48:58;3.63;;;1.63;;
2966;SDS011;1493;51.496;7.210;2023-09-18T10:51:26;5.10;;;1.73;;
2966;SDS011;1493;51.496;7.210;2023-09-18T10:53:56;3.50;;;1.70;;
2966;SDS011;1493;51.496;7.210;2023-09-18T10:56:23;5.33;;;1.73;;
2966;SDS011;1493;51.496;7.210;2023-09-18T10:58:55;5.87;;;1.50;;
2966;SDS011;1493;51.496;7.210;2023-09-18T11:01:23;4.63;;;1.33;;
2966;SDS011;1493;51.496;7.210;2023-09-18T11:03:53;5.57;;;1.60;;
2966;SDS011;1493;51.496;7.210;2023-09-18T11:06:25;4.83;;;1.83;;
2966;SDS011;1493;51.496;7.210;2023-09-18T11:08:58;3.33;;;1.57;;
2966;SDS011;1493;51.496;7.210;2023-09-18T11:11:29;2.73;;;1.30;;
2966;SDS011;1493;51.496;7.210;2023-09-18T11:13:58;3.17;;;1.40;;
2966;SDS011;1493;51.496;7.210;2023-09-18T11:16:33;2.40;;;1.30;;
2966;SDS011;1493;51.496;7.210;2023-09-18T11:19:11;4.40;;;2.00;;
2966;SDS011;1493;51.496;7.210;2023-09-18T11:21:42;5.77;;;2.00;;
2966;SDS011;1493;51.496;7.210;2023-09-18T11:24:15;2.73;;;1.37;;
2966;SDS011;1493;51.496;7.210;2023-09-18T11:26:44;5.70;;;1.87;;
2966;SDS011;1493;51.496;7.210;2023-09-18T11:29:13;2.97;;;1.40;;
2966;SDS011;1493;51.496;7.210;2023-09-18T11:31:44;3.30;;;1.57;;
2966;SDS011;1493;51.496;7.210;2023-09-18T11:34:21;2.90;;;1.53;;
2966;SDS011;1493;51.496;7.210;2023-09-18T11:36:48;4.67;;;1.50;;
2966;SDS011;1493;51.496;7.210;2023-09-18T11:39:35;8.87;;;2.20;;
2966;SDS011;1493;51.496;7.210;2023-09-18T11:42:09;2.57;;;1.20;;
2966;SDS011;1493;51.496;7.210;2023-09-18T11:44:38;4.00;;;1.70;;
2966;SDS011;1493;51.496;7.210;2023-09-18T11:47:11;7.27;;;1.77;;
2966;SDS011;1493;51.496;7.210;2023-09-18T11:49:47;2.90;;;1.83;;
2966;SDS011;1493;51.496;7.210;2023-09-18T11:52:18;2.13;;;1.33;;
2966;SDS011;1493;51.496;7.210;2023-09-18T11:54:44;3.53;;;1.60;;
2966;SDS011;1493;51.496;7.210;2023-09-18T11:57:13;3.37;;;1.63;;
2966;SDS011;1493;51.496;7.210;2023-09-18T11:59:40;2.70;;;1.37;;
2966;SDS011;1493;51.496;7.210;2023-09-18T12:02:08;3.13;;;1.67;;
2966;SDS011;1493;51.496;7.210;2023-09-18T12:04:36;2.30;;;1.30;;
2966;SDS011;1493;51.496;7.210;2023-09-18T12:07:05;3.40;;;1.40;;
2966;SDS011;1493;51.496;7.210;2023-09-18T12:09:34;3.60;;;1.77;;
2966;SDS011;1493;51.496;7.210;2023-09-18T12:12:01;4.00;;;1.90;;
2966;SDS011;1493;51.496;7.210;2023-09-18T12:14:32;3.83;;;1.70;;
2966;SDS011;1493;51.496;7.210;2023-09-18T12:17:00;5.40;;;1.80;;
2966;SDS011;1493;51.496;7.210;2023-09-18T12:19:27;4.53;;;1.67;;
2966;SDS011;1493;51.496;7.210;2023-09-18T12:21:57;2.80;;;1.50;;
2966;SDS011;1493;51.496;7.210;2023-09-18T12:24:26;2.83;;;1.67;;
2966;SDS011;1493;51.496;7.210;2023-09-18T12:26:54;3.73;;;1.43;;
2966;SDS011;1493;51.496;7.210;2023-09-18T12:29:21;2.53;;;1.40;;
2966;SDS011;1493;51.496;7.210;2023-09-18T12:31:48;3.00;;;1.30;;
2966;SDS011;1493;51.496;7.210;2023-09-18T12:34:18;4.47;;;1.80;;
2966;SDS011;1493;51.496;7.210;2023-09-18T12:36:47;3.20;;;1.80;;
2966;SDS011;1493;51.496;7.210;2023-09-18T12:39:14;7.33;;;1.77;;
2966;SDS011;1493;51.496;7.210;2023-09-18T12:41:42;6.17;;;1.83;;
2966;SDS011;1493;51.496;7.210;2023-09-18T12:44:10;2.77;;;1.30;;
2966;SDS011;1493;51.496;7.210;2023-09-18T12:46:39;2.90;;;1.40;;
2966;SDS011;1493;51.496;7.210;2023-09-18T12:49:16;4.63;;;1.97;;
2966;SDS011;1493;51.496;7.210;2023-09-18T12:51:44;4.50;;;1.90;;
2966;SDS011;1493;51.496;7.210;2023-09-18T12:54:20;4.70;;;1.50;;
2966;SDS011;1493;51.496;7.210;2023-09-18T12:56:48;2.53;;;1.50;;
2966;SDS011;1493;51.496;7.210;2023-09-18T12:59:17;2.50;;;1.60;;
2966;SDS011;1493;51.496;7.210;2023-09-18T13:01:46;4.17;;;1.93;;
2966;SDS011;1493;51.496;7.210;2023-09-18T13:04:14;3.47;;;1.80;;
2966;SDS011;1493;51.496;7.210;2023-09-18T13:06:40;3.00;;;1.67;;
2966;SDS011;1493;51.496;7.210;2023-09-18T13:09:16;5.00;;;1.83;;
2966;SDS011;1493;51.496;7.210;2023-09-18T13:11:55;2.83;;;1.70;;
2966;SDS011;1493;51.496;7.210;2023-09-18T13:14:23;3.90;;;1.90;;
2966;SDS011;1493;51.496;7.210;2023-09-18T13:16:52;3.63;;;2.00;;
2966;SDS011;1493;51.496;7.210;2023-09-18T13:19:26;3.40;;;1.80;;
2966;SDS011;1493;51.496;7.210;2023-09-18T13:21:52;5.57;;;1.97;;
2966;SDS011;1493;51.496;7.210;2023-09-18T13:24:26;3.87;;;2.17;;
2966;SDS011;1493;51.496;7.210;2023-09-18T13:26:55;7.50;;;2.30;;
2966;SDS011;1493;51.496;7.210;2023-09-18T13:29:24;6.37;;;1.97;;
2966;SDS011;1493;51.496;7.210;2023-09-18T13:31:51;3.70;;;2.00;;
2966;SDS011;1493;51.496;7.210;2023-09-18T13:34:18;4.10;;;1.60;;
2966;SDS011;1493;51.496;7.210;2023-09-18T13:36:46;3.47;;;1.47;;
2966;SDS011;1493;51.496;7.210;2023-09-18T13:39:13;2.80;;;1.50;;
2966;SDS011;1493;51.496;7.210;2023-09-18T13:41:42;3.47;;;1.50;;
2966;SDS011;1493;51.496;7.210;2023-09-18T13:44:10;4.30;;;1.70;;
2966;SDS011;1493;51.496;7.210;2023-09-18T13:46:37;4.90;;;1.50;;
2966;SDS011;1493;51.496;7.210;2023-09-18T13:49:04;5.50;;;1.73;;
2966;SDS011;1493;51.496;7.210;2023-09-18T13:51:31;4.57;;;2.13;;
2966;SDS011;1493;51.496;7.210;2023-09-18T13:53:59;2.70;;;1.47;;
2966;SDS011;1493;51.496;7.210;2023-09-18T13:56:25;2.47;;;1.70;;
2966;SDS011;1493;51.496;7.210;2023-09-18T13:58:54;3.60;;;1.50;;
2966;SDS011;1493;51.496;7.210;2023-09-18T14:01:22;3.70;;;1.80;;
2966;SDS011;1493;51.496;7.210;2023-09-18T14:03:50;3.57;;;1.67;;
2966;SDS011;1493;51.496;7.210;2023-09-18T14:06:17;2.67;;;1.63;;
2966;SDS011;1493;51.496;7.210;2023-09-18T14:08:44;2.80;;;1.80;;
2966;SDS011;1493;51.496;7.210;2023-09-18T14:11:11;4.80;;;1.80;;
2966;SDS011;1493;51.496;7.210;2023-09-18T14:13:38;8.03;;;1.60;;
2966;SDS011;1493;51.496;7.210;2023-09-18T14:16:04;2.50;;;1.53;;
2966;SDS011;1493;51.496;7.210;2023-09-18T14:18:34;2.83;;;1.73;;
2966;SDS011;1493;51.496;7.210;2023-09-18T14:21:01;2.37;;;1.40;;
2966;SDS011;1493;51.496;7.210;2023-09-18T14:23:28;2.97;;;1.90;;
2966;SDS011;1493;51.496;7.210;2023-09-18T14:25:54;5.17;;;1.67;;
2966;SDS011;1493;51.496;7.210;2023-09-18T14:28:22;2.77;;;1.50;;
2966;SDS011;1493;51.496;7.210;2023-09-18T14:30:49;3.60;;;1.67;;
2966;SDS011;1493;51.496;7.210;2023-09-18T14:33:16;3.60;;;1.60;;
2966;SDS011;1493;51.496;7.210;2023-09-18T14:35:44;3.13;;;1.53;;
2966;SDS011;1493;51.496;7.210;2023-09-18T14:38:11;2.53;;;1.80;;
2966;SDS011;1493;51.496;7.210;2023-09-18T14:40:40;2.50;;;1.50;;
2966;SDS011;1493;51.496;7.210;2023-09-18T14:43:07;3.67;;;1.50;;
2966;SDS011;1493;51.496;7.210;2023-09-18T14:45:34;2.73;;;1.80;;
2966;SDS011;1493;51.496;7.210;2023-09-18T14:48:03;3.60;;;1.70;;
2966;SDS011;1493;51.496;7.210;2023-09-18T14:50:30;3.00;;;1.63;;
2966;SDS011;1493;51.496;7.210;2023-09-18T14:52:59;3.13;;;1.60;;
2966;SDS011;1493;51.496;7.210;2023-09-18T14:55:25;2.93;;;1.20;;
2966;SDS011;1493;51.496;7.210;2023-09-18T14:57:52;2.37;;;1.27;;
2966;SDS011;1493;51.496;7.210;2023-09-18T15:00:19;2.30;;;1.30;;
2966;SDS011;1493;51.496;7.210;2023-09-18T15:02:46;4.07;;;1.57;;
2966;SDS011;1493;51.496;7.210;2023-09-18T15:05:13;3.13;;;1.47;;
2966;SDS011;1493;51.496;7.210;2023-09-18T15:07:41;2.00;;;1.50;;
2966;SDS011;1493;51.496;7.210;2023-09-18T15:10:09;2.40;;;1.40;;
2966;SDS011;1493;51.496;7.210;2023-09-18T15:12:36;2.27;;;1.40;;
2966;SDS011;1493;51.496;7.210;2023-09-18T15:15:06;3.20;;;1.80;;
2966;SDS011;1493;51.496;7.210;2023-09-18T15:17:33;2.73;;;1.47;;
2966;SDS011;1493;51.496;7.210;2023-09-18T15:19:59;4.30;;;1.90;;
2966;SDS011;1493;51.496;7.210;2023-09-18T15:22:26;4.27;;;1.57;;
2966;SDS011;1493;51.496;7.210;2023-09-18T15:24:53;2.60;;;1.50;;
2966;SDS011;1493;51.496;7.210;2023-09-18T15:27:22;4.33;;;1.40;;